Flugplatz Mosenberg (EDEM)

Hier findest Du alle Informationen zum Flugplatz Mosenberg (EDEM).

Informationen für Piloten zum Flugplatz Mosenberg

Hier findest Du alle relevanten Informationen, die Du als Pilot benötigst, um Mosenberg anzufliegen.

Flugplatz: Mosenberg ICAO-Code: EDEM
Frequenz Turm: 123,050 Mhz GAFOR Gebiet: 43
Frequenz Ground: 123,050 Mhz Mogas: nein
Platzrunde: S 2000 ft Landegebühr: -
Platzhöhe: - Sunrise: 03:23 Uhr UTC
Pisten: 07/25 - 511 m x 20 m, GRAS Sunset: 19:14 Uhr UTC

Mitglieder, die in Mosenberg fliegen

Flugwetter am Flugplatz Mosenberg

Die METAR Information stammen aus EDVK (38.36 km entfernt).

METAR Code:
2022/05/12 17:50
EDVK 121750Z 33007KT CAVOK 17/07 Q1017

Temperatur: 13,6 °C Niederschlag: - Wind: 1,0 kt
Temperatur (min.): 13,0 °C Luftdruck: 1022 hPa Windrichtung: 360 °
Temperatur (max.): 14,3 °C Luftfeuchtigkeit: 94 % Bewölkung: 8/8

Flugschulen am Flugplatz Mosenberg

Am Flugplatz Mosenberg gibt es leider keine Flugschule.

Benachbarte Flugplätze und Flugschulen

Es gibt 16 weitere Flugplätze in einem Umkreis von 50 km um den Flugplatz Mosenberg.

Jetzt anmelden

Passwort vergessen

Umfrage Archiv

Sendet Ihr ADS-B und/oder FLARM?

Ja
81.6 %
Nein
18.4 %
Stimmen: 147 | Diskussion
Anzeige: Roland Aircraft
Statistik Alle Mitglieder

Aktuell sind 67 Besucher online, davon 1 Mitglied und 66 Gäste.


Mitglieder online:
Heli 

Anzeige: ULPower Aero Engines Anzeige: Pocket FMS